createdAt,value
2022-09-28T00:00:21.386Z,84.30
2022-09-28T00:02:48.363Z,84.20
2022-09-28T00:05:15.132Z,84.20
2022-09-28T00:07:41.999Z,85.00
2022-09-28T00:10:08.800Z,84.70
2022-09-28T00:12:35.424Z,84.70
2022-09-28T00:15:03.143Z,84.90
2022-09-28T00:17:29.775Z,85.00
2022-09-28T00:19:57.973Z,84.70
2022-09-28T00:22:24.624Z,84.50
2022-09-28T00:24:51.249Z,84.40
2022-09-28T00:27:18.028Z,84.90
2022-09-28T00:29:44.733Z,84.80
2022-09-28T00:32:13.634Z,85.60
2022-09-28T00:34:42.378Z,84.50
2022-09-28T00:37:09.329Z,84.40
2022-09-28T00:39:38.123Z,84.90
2022-09-28T00:42:10.886Z,84.40
2022-09-28T00:44:42.173Z,84.10
2022-09-28T00:47:14.856Z,83.40
2022-09-28T00:49:44.053Z,83.40
2022-09-28T00:52:13.244Z,83.10
2022-09-28T00:54:40.378Z,83.60
2022-09-28T00:57:06.980Z,84.00
2022-09-28T00:59:33.928Z,83.40
2022-09-28T01:02:01.338Z,83.60
2022-09-28T01:04:30.015Z,83.50
2022-09-28T01:06:57.810Z,83.60
2022-09-28T01:09:25.368Z,83.60
2022-09-28T01:11:51.965Z,83.40
2022-09-28T01:14:19.220Z,82.90
2022-09-28T01:16:51.948Z,83.20
2022-09-28T01:19:48.849Z,83.10
2022-09-28T01:22:38.881Z,82.50
2022-09-28T01:25:09.072Z,82.70
2022-09-28T01:27:39.425Z,82.70
2022-09-28T01:30:08.157Z,82.60
2022-09-28T01:32:54.553Z,82.50
2022-09-28T01:35:24.257Z,82.00
2022-09-28T01:38:00.544Z,81.70
2022-09-28T01:40:28.500Z,81.80
2022-09-28T01:42:58.485Z,81.70
2022-09-28T01:45:39.958Z,82.10
2022-09-28T01:48:07.700Z,82.40
2022-09-28T01:50:37.993Z,80.90
2022-09-28T01:53:08.311Z,81.00
2022-09-28T01:55:37.288Z,80.70
2022-09-28T01:58:12.597Z,80.40
2022-09-28T02:00:41.753Z,80.10
2022-09-28T02:03:12.477Z,80.40
2022-09-28T02:05:47.209Z,80.10
2022-09-28T02:08:31.578Z,79.80
2022-09-28T02:11:01.743Z,79.90
2022-09-28T02:13:32.851Z,80.00
2022-09-28T02:16:05.154Z,79.50
2022-09-28T02:18:32.082Z,79.90
2022-09-28T02:21:08.933Z,78.90
2022-09-28T02:23:37.270Z,79.40
2022-09-28T02:26:06.439Z,79.30
2022-09-28T02:28:33.396Z,78.90
2022-09-28T02:31:00.522Z,79.00
2022-09-28T02:33:35.783Z,77.30
2022-09-28T02:36:03.574Z,78.40
2022-09-28T02:38:33.899Z,78.40
2022-09-28T02:41:05.349Z,77.50
2022-09-28T02:43:32.013Z,77.80
2022-09-28T02:45:58.794Z,77.70
2022-09-28T02:48:52.229Z,78.10
2022-09-28T02:51:33.953Z,76.00
2022-09-28T02:54:18.960Z,76.20
2022-09-28T02:57:04.618Z,76.60
2022-09-28T02:59:38.998Z,76.60
2022-09-28T03:02:09.196Z,77.80
2022-09-28T03:04:39.286Z,76.80
2022-09-28T03:07:25.089Z,76.90
2022-09-28T03:09:51.739Z,77.30
2022-09-28T03:12:19.334Z,77.10
2022-09-28T03:14:46.684Z,77.80
2022-09-28T03:17:13.325Z,78.00
2022-09-28T03:19:39.992Z,77.80
2022-09-28T03:22:07.933Z,78.20
2022-09-28T03:24:34.743Z,77.00
2022-09-28T03:27:01.949Z,76.70
2022-09-28T03:29:31.317Z,77.50
2022-09-28T03:32:00.973Z,77.40
2022-09-28T03:34:27.598Z,78.00
2022-09-28T03:36:54.399Z,77.90
2022-09-28T03:39:20.985Z,78.10
2022-09-28T03:41:47.582Z,79.00
2022-09-28T03:44:14.343Z,78.90
2022-09-28T03:46:41.099Z,78.20
2022-09-28T03:49:09.108Z,79.40
2022-09-28T03:51:35.830Z,78.90
2022-09-28T03:54:02.418Z,80.10
2022-09-28T03:56:29.026Z,80.10
2022-09-28T03:58:55.701Z,79.90
2022-09-28T04:01:22.378Z,80.60
2022-09-28T04:03:54.011Z,80.00
2022-09-28T04:06:20.774Z,80.60
2022-09-28T04:08:47.410Z,81.00
2022-09-28T04:11:14.040Z,81.30
2022-09-28T04:13:40.632Z,81.30
2022-09-28T04:16:10.445Z,81.80
2022-09-28T04:18:37.149Z,82.20
2022-09-28T04:21:22.169Z,81.80
2022-09-28T04:23:54.393Z,81.80
2022-09-28T04:26:25.243Z,82.30
2022-09-28T04:29:10.647Z,81.70
2022-09-28T04:31:43.531Z,82.40
2022-09-28T04:34:10.555Z,81.80
2022-09-28T04:36:37.180Z,81.50
2022-09-28T04:39:03.915Z,82.20
2022-09-28T04:41:31.736Z,82.00
2022-09-28T04:43:58.476Z,82.20
2022-09-28T04:46:26.155Z,81.70
2022-09-28T04:49:06.552Z,81.20
2022-09-28T04:52:05.898Z,81.60
2022-09-28T04:54:34.200Z,81.80
2022-09-28T04:57:01.697Z,82.40
2022-09-28T04:59:28.301Z,82.60
2022-09-28T05:01:55.026Z,82.30
2022-09-28T05:04:39.911Z,82.20
2022-09-28T05:07:14.257Z,81.90
2022-09-28T05:09:40.861Z,81.90
2022-09-28T05:12:08.416Z,82.80
2022-09-28T05:14:35.072Z,83.30
2022-09-28T05:17:03.799Z,83.60
2022-09-28T05:19:38.152Z,83.80
2022-09-28T05:22:05.949Z,83.40
2022-09-28T05:24:37.736Z,83.60
2022-09-28T05:27:05.053Z,83.30
2022-09-28T05:29:32.545Z,83.20
2022-09-28T05:32:17.784Z,83.30
2022-09-28T05:34:49.937Z,83.60
2022-09-28T05:37:23.652Z,83.60
2022-09-28T05:39:50.432Z,83.80
2022-09-28T05:42:17.316Z,83.80
2022-09-28T05:44:44.223Z,83.70
2022-09-28T05:47:12.219Z,84.00
2022-09-28T05:49:39.266Z,84.50
2022-09-28T05:52:06.123Z,84.30
2022-09-28T05:54:36.609Z,84.10
2022-09-28T05:57:05.051Z,84.10
2022-09-28T05:59:31.660Z,84.40
2022-09-28T06:01:58.391Z,84.40
2022-09-28T06:04:25.831Z,84.70
2022-09-28T06:06:55.341Z,84.90
2022-09-28T06:09:25.917Z,84.80
2022-09-28T06:12:01.846Z,84.80
2022-09-28T06:14:38.931Z,84.70
2022-09-28T06:17:05.538Z,84.70
2022-09-28T06:19:32.204Z,84.70
2022-09-28T06:22:23.655Z,84.60
2022-09-28T06:24:57.551Z,84.70
2022-09-28T06:27:24.879Z,85.10
2022-09-28T06:29:52.067Z,85.40
2022-09-28T06:32:18.978Z,85.20
2022-09-28T06:34:56.029Z,85.40
2022-09-28T06:37:25.981Z,85.40
2022-09-28T06:39:52.981Z,85.50
2022-09-28T06:42:20.265Z,85.80
2022-09-28T06:45:24.532Z,86.10
2022-09-28T06:48:29.673Z,85.80
2022-09-28T06:50:56.657Z,85.60
2022-09-28T06:53:28.128Z,85.30
2022-09-28T06:56:14.995Z,85.40
2022-09-28T06:58:41.613Z,85.60
2022-09-28T07:01:09.099Z,85.40
2022-09-28T07:03:53.612Z,85.00
2022-09-28T07:06:45.872Z,84.90
2022-09-28T07:09:49.395Z,84.60
2022-09-28T07:12:34.881Z,85.00
2022-09-28T07:15:04.904Z,85.40
2022-09-28T07:17:35.898Z,85.40
2022-09-28T07:20:16.775Z,85.80
2022-09-28T07:22:47.876Z,85.20
2022-09-28T07:25:18.695Z,85.30
2022-09-28T07:27:57.270Z,85.40
2022-09-28T07:30:38.174Z,85.40
2022-09-28T07:33:15.798Z,85.50
2022-09-28T07:35:50.641Z,85.80
2022-09-28T07:38:17.572Z,85.70
2022-09-28T07:41:02.884Z,86.20
2022-09-28T07:43:29.724Z,86.00
2022-09-28T07:45:56.738Z,85.80
2022-09-28T07:48:23.758Z,85.70
2022-09-28T07:51:04.111Z,85.90
2022-09-28T07:53:42.008Z,86.10
2022-09-28T07:56:36.351Z,86.20
2022-09-28T07:59:18.228Z,86.30
2022-09-28T08:02:11.618Z,86.70
2022-09-28T08:04:38.287Z,86.80
2022-09-28T08:07:09.271Z,86.90
2022-09-28T08:09:35.966Z,86.80
2022-09-28T08:12:22.848Z,86.30
2022-09-28T08:15:01.347Z,86.60
2022-09-28T08:18:01.933Z,86.40
2022-09-28T08:20:51.616Z,86.50
2022-09-28T08:23:18.862Z,86.40
2022-09-28T08:25:53.909Z,86.30
2022-09-28T08:28:22.584Z,85.90
2022-09-28T08:30:51.110Z,86.50
2022-09-28T08:33:26.952Z,86.50
2022-09-28T08:36:12.341Z,85.90
2022-09-28T08:38:56.897Z,86.10
2022-09-28T08:41:51.466Z,86.60
2022-09-28T08:48:12.499Z,87.30
2022-09-28T08:50:56.007Z,86.40
2022-09-28T08:53:41.754Z,84.90
2022-09-28T08:56:18.372Z,84.00
2022-09-28T08:58:49.505Z,84.80
2022-09-28T09:01:18.874Z,84.20
2022-09-28T09:03:47.471Z,83.80
2022-09-28T09:06:33.232Z,85.30
2022-09-28T09:09:34.904Z,85.10
2022-09-28T09:12:19.255Z,85.80
2022-09-28T09:15:04.224Z,85.00
2022-09-28T09:17:50.140Z,85.50
2022-09-28T09:20:42.347Z,84.40
2022-09-28T09:23:28.288Z,85.30
2022-09-28T09:25:59.349Z,86.30
2022-09-28T09:28:36.086Z,85.80
2022-09-28T09:31:08.872Z,86.40
2022-09-28T09:33:52.391Z,86.40
2022-09-28T09:36:37.459Z,86.60
2022-09-28T09:39:45.572Z,87.70
2022-09-28T09:42:44.193Z,86.50
2022-09-28T09:45:48.451Z,86.30
2022-09-28T09:48:46.008Z,86.60
2022-09-28T09:51:15.981Z,86.50
2022-09-28T09:53:48.235Z,86.80
2022-09-28T09:56:31.077Z,86.70
2022-09-28T09:59:13.996Z,87.40
2022-09-28T10:02:11.793Z,87.00
2022-09-28T10:04:50.340Z,86.80
2022-09-28T10:07:24.046Z,87.00
2022-09-28T10:09:52.549Z,89.20
2022-09-28T10:12:28.837Z,85.70
2022-09-28T10:14:56.045Z,86.20
2022-09-28T10:17:27.316Z,86.40
2022-09-28T10:20:13.277Z,87.40
2022-09-28T10:23:01.944Z,87.20
2022-09-28T10:25:31.734Z,86.80
2022-09-28T10:28:00.930Z,87.10
2022-09-28T10:30:28.395Z,87.60
2022-09-28T10:32:59.235Z,87.90
2022-09-28T10:35:40.001Z,88.00
2022-09-28T10:38:07.866Z,88.00
2022-09-28T10:40:58.318Z,87.10
2022-09-28T10:43:38.323Z,87.00
2022-09-28T10:46:10.404Z,86.00
2022-09-28T10:48:59.731Z,86.10
2022-09-28T10:51:39.881Z,86.20
2022-09-28T10:54:13.073Z,86.60
2022-09-28T10:56:44.913Z,86.90
2022-09-28T10:59:29.660Z,86.80
2022-09-28T11:02:26.280Z,85.00
2022-09-28T11:04:58.716Z,86.20
2022-09-28T11:07:30.397Z,84.40
2022-09-28T11:09:58.860Z,82.90
2022-09-28T11:12:27.891Z,82.60
2022-09-28T11:15:02.263Z,84.20
2022-09-28T11:17:33.423Z,85.10
2022-09-28T11:20:01.450Z,84.90
2022-09-28T11:22:30.078Z,85.50
2022-09-28T11:25:16.514Z,85.90
2022-09-28T11:27:55.494Z,85.40
2022-09-28T11:30:24.789Z,84.60
2022-09-28T11:33:21.323Z,86.20
2022-09-28T11:36:29.392Z,86.60
2022-09-28T11:38:55.972Z,86.50
2022-09-28T11:41:45.724Z,86.90
2022-09-28T11:44:28.236Z,86.90
2022-09-28T11:47:41.469Z,85.90
2022-09-28T11:50:22.947Z,86.00
2022-09-28T11:52:56.917Z,86.10
2022-09-28T11:55:42.985Z,86.20
2022-09-28T11:58:16.127Z,86.40
2022-09-28T12:00:48.797Z,86.70
2022-09-28T12:03:22.614Z,86.40
2022-09-28T12:05:56.782Z,85.00
2022-09-28T12:08:27.452Z,86.30
2022-09-28T12:11:00.129Z,86.40
2022-09-28T12:13:48.060Z,84.90
2022-09-28T12:17:03.722Z,84.30
2022-09-28T12:19:13.140Z,85.20
2022-09-28T12:21:47.063Z,84.50
2022-09-28T12:24:14.125Z,84.80
2022-09-28T12:26:43.775Z,85.50
2022-09-28T12:29:14.175Z,86.00
2022-09-28T12:31:50.022Z,85.90
2022-09-28T12:34:16.629Z,86.70
2022-09-28T12:36:47.352Z,86.70
2022-09-28T12:39:24.020Z,86.30
2022-09-28T12:42:14.951Z,86.40
2022-09-28T12:44:59.404Z,86.00
2022-09-28T12:47:45.472Z,86.30
2022-09-28T12:53:23.467Z,85.30
2022-09-28T12:55:50.968Z,83.50
2022-09-28T12:58:17.565Z,83.40
2022-09-28T13:00:47.204Z,83.30
2022-09-28T13:03:31.626Z,83.60
2022-09-28T13:06:17.095Z,83.90
2022-09-28T13:08:55.235Z,83.70
2022-09-28T13:11:33.048Z,84.60
2022-09-28T13:14:11.880Z,83.90
2022-09-28T13:17:00.965Z,83.50
2022-09-28T13:19:44.629Z,84.40
2022-09-28T13:22:26.502Z,84.60
2022-09-28T13:24:55.197Z,84.90
2022-09-28T13:27:27.794Z,84.40
2022-09-28T13:29:56.672Z,85.40
2022-09-28T13:32:29.844Z,86.30
2022-09-28T13:34:56.588Z,85.40
2022-09-28T13:37:24.306Z,86.20
2022-09-28T13:39:55.074Z,86.40
2022-09-28T13:42:36.655Z,86.20
2022-09-28T13:45:18.671Z,86.20
2022-09-28T13:47:53.805Z,85.80
2022-09-28T13:50:29.700Z,85.00
2022-09-28T13:53:03.757Z,84.30
2022-09-28T13:55:40.903Z,84.60
2022-09-28T13:58:24.523Z,84.80
2022-09-28T14:00:53.373Z,85.10
2022-09-28T14:03:22.937Z,85.40
2022-09-28T14:06:10.976Z,85.40
2022-09-28T14:08:39.383Z,86.00
2022-09-28T14:11:24.938Z,86.20
2022-09-28T14:13:58.747Z,85.70
2022-09-28T14:16:32.614Z,85.80
2022-09-28T14:19:02.320Z,85.10
2022-09-28T14:21:28.867Z,84.80
2022-09-28T14:24:18.611Z,84.70
2022-09-28T14:26:45.270Z,85.60
2022-09-28T14:29:41.238Z,85.30
2022-09-28T14:32:07.787Z,85.30
2022-09-28T14:34:36.655Z,84.80
2022-09-28T14:37:40.023Z,86.10
2022-09-28T14:40:35.915Z,85.70
2022-09-28T14:43:24.641Z,84.80
2022-09-28T14:46:11.508Z,85.30
2022-09-28T14:48:54.717Z,85.60
2022-09-28T14:51:27.272Z,85.80
2022-09-28T14:54:00.225Z,84.80
2022-09-28T14:56:33.056Z,84.80
2022-09-28T14:59:00.127Z,85.30
2022-09-28T15:01:27.520Z,85.00
2022-09-28T15:04:00.240Z,85.20
2022-09-28T15:06:28.709Z,85.10
2022-09-28T15:08:55.286Z,85.10
2022-09-28T15:11:23.541Z,85.90
2022-09-28T15:13:53.889Z,85.80
2022-09-28T15:16:23.359Z,85.60
2022-09-28T15:19:08.827Z,86.20
2022-09-28T15:21:36.604Z,86.40
2022-09-28T15:24:23.060Z,86.40
2022-09-28T15:26:49.969Z,85.40
2022-09-28T15:29:17.715Z,85.90
2022-09-28T15:31:44.721Z,86.20
2022-09-28T15:34:48.539Z,86.10
2022-09-28T15:37:16.583Z,86.40
2022-09-28T15:39:44.455Z,86.30
2022-09-28T15:42:11.136Z,86.40
2022-09-28T15:44:38.192Z,86.10
2022-09-28T15:47:14.116Z,86.50
2022-09-28T15:49:43.147Z,86.50
2022-09-28T15:52:24.915Z,86.30
2022-09-28T15:54:51.892Z,86.70
2022-09-28T15:57:38.383Z,86.20
2022-09-28T16:00:06.829Z,86.80
2022-09-28T16:02:38.714Z,86.60
2022-09-28T16:05:25.332Z,86.90
2022-09-28T16:07:56.311Z,87.20
2022-09-28T16:10:33.357Z,86.40
2022-09-28T16:13:20.063Z,86.00
2022-09-28T16:15:54.808Z,86.40
2022-09-28T16:18:23.403Z,86.80
2022-09-28T16:20:53.963Z,87.10
2022-09-28T16:23:29.984Z,87.40
2022-09-28T16:25:58.724Z,87.40
2022-09-28T16:28:48.838Z,87.10
2022-09-28T16:31:15.469Z,87.80
2022-09-28T16:34:02.440Z,87.70
2022-09-28T16:36:38.363Z,88.00
2022-09-28T16:39:04.949Z,87.20
2022-09-28T16:41:32.057Z,86.50
2022-09-28T16:44:00.785Z,86.20
2022-09-28T16:46:37.636Z,86.80
2022-09-28T16:49:05.931Z,87.20
2022-09-28T16:51:33.498Z,86.70
2022-09-28T16:54:29.884Z,86.70
2022-09-28T16:56:56.491Z,86.40
2022-09-28T16:59:23.151Z,86.80
2022-09-28T17:01:49.798Z,86.50
2022-09-28T17:04:16.753Z,87.00
2022-09-28T17:06:43.460Z,86.70
2022-09-28T17:09:12.106Z,87.40
2022-09-28T17:11:39.268Z,87.90
2022-09-28T17:14:05.973Z,87.90
2022-09-28T17:16:59.963Z,88.10
2022-09-28T17:19:26.767Z,88.50
2022-09-28T17:21:53.366Z,88.70
2022-09-28T17:24:20.251Z,88.40
2022-09-28T17:26:48.954Z,88.50
2022-09-28T17:29:15.779Z,87.90
2022-09-28T17:31:43.199Z,88.80
2022-09-28T17:34:10.925Z,88.60
2022-09-28T17:36:37.717Z,88.70
2022-09-28T17:39:04.927Z,88.10
2022-09-28T17:41:32.173Z,87.70
2022-09-28T17:44:00.130Z,88.10
2022-09-28T17:46:31.070Z,87.60
2022-09-28T17:48:59.596Z,87.70
2022-09-28T17:51:27.355Z,87.30
2022-09-28T17:53:56.060Z,87.20
2022-09-28T17:56:23.259Z,87.40
2022-09-28T17:58:49.847Z,87.20
2022-09-28T18:01:16.600Z,87.80
2022-09-28T18:03:43.303Z,88.20
2022-09-28T18:06:19.596Z,88.20
2022-09-28T18:08:46.720Z,88.40
2022-09-28T18:11:13.307Z,87.90
2022-09-28T18:13:40.539Z,87.70
2022-09-28T18:16:07.186Z,87.80
2022-09-28T18:18:36.610Z,87.50
2022-09-28T18:21:03.233Z,87.70
2022-09-28T18:23:29.933Z,87.60
2022-09-28T18:25:56.525Z,87.40
2022-09-28T18:28:23.164Z,86.80
2022-09-28T18:30:50.056Z,87.40
2022-09-28T18:33:16.706Z,86.10
2022-09-28T18:35:50.999Z,86.10
2022-09-28T18:38:17.977Z,86.10
2022-09-28T18:40:44.743Z,86.50
2022-09-28T18:43:11.407Z,87.20
2022-09-28T18:45:38.118Z,87.50
2022-09-28T18:48:04.697Z,87.60
2022-09-28T18:50:31.293Z,87.00
2022-09-28T18:53:11.325Z,86.90
2022-09-28T18:55:39.275Z,87.20
2022-09-28T18:58:06.641Z,87.20
2022-09-28T19:00:33.903Z,87.20
2022-09-28T19:03:01.929Z,86.60
2022-09-28T19:05:28.731Z,86.60
2022-09-28T19:07:55.349Z,87.30
2022-09-28T19:10:22.308Z,87.20
2022-09-28T19:12:48.975Z,87.00
2022-09-28T19:15:15.733Z,87.60
2022-09-28T19:17:42.420Z,87.60
2022-09-28T19:20:09.159Z,87.60
2022-09-28T19:22:35.873Z,88.20
2022-09-28T19:25:02.497Z,88.00
2022-09-28T19:27:29.120Z,88.10
2022-09-28T19:29:55.733Z,88.30
2022-09-28T19:32:22.361Z,87.80
2022-09-28T19:34:48.966Z,87.30
2022-09-28T19:37:15.561Z,87.50
2022-09-28T19:39:42.173Z,87.50
2022-09-28T19:42:08.763Z,87.10
2022-09-28T19:44:35.762Z,87.10
2022-09-28T19:47:06.566Z,87.30
2022-09-28T19:49:36.812Z,87.30
2022-09-28T19:52:13.879Z,87.70
2022-09-28T19:55:00.936Z,86.80
2022-09-28T19:57:29.100Z,87.10
2022-09-28T20:00:01.702Z,87.30
2022-09-28T20:02:32.449Z,87.20
2022-09-28T20:04:59.278Z,87.10
2022-09-28T20:07:25.893Z,87.60
2022-09-28T20:09:52.508Z,87.70
2022-09-28T20:12:19.189Z,87.40
2022-09-28T20:14:45.808Z,87.60
2022-09-28T20:17:12.493Z,86.90
2022-09-28T20:19:39.202Z,87.40
2022-09-28T20:22:05.813Z,87.50
2022-09-28T20:24:32.533Z,87.30
2022-09-28T20:26:59.176Z,86.90
2022-09-28T20:29:26.618Z,87.00
2022-09-28T20:31:53.220Z,87.50
2022-09-28T20:34:19.863Z,87.00
2022-09-28T20:36:46.456Z,87.30
2022-09-28T20:39:13.373Z,87.50
2022-09-28T20:41:40.246Z,87.70
2022-09-28T20:44:07.294Z,87.30
2022-09-28T20:46:34.814Z,87.40
2022-09-28T20:49:01.701Z,87.60
2022-09-28T20:51:28.328Z,87.30
2022-09-28T20:53:56.203Z,87.60
2022-09-28T20:56:24.170Z,87.20
2022-09-28T20:58:51.471Z,87.30
2022-09-28T21:01:24.133Z,87.40
2022-09-28T21:04:06.568Z,87.50
2022-09-28T21:06:34.611Z,87.40
2022-09-28T21:09:01.361Z,87.10
2022-09-28T21:11:28.599Z,87.30
2022-09-28T21:13:57.043Z,87.00
2022-09-28T21:16:24.313Z,87.00
2022-09-28T21:18:50.915Z,86.50
2022-09-28T21:21:19.133Z,86.70
2022-09-28T21:23:46.075Z,86.50
2022-09-28T21:26:12.722Z,86.30
2022-09-28T21:28:39.397Z,86.20
2022-09-28T21:31:07.537Z,85.90
2022-09-28T21:33:34.281Z,86.20
2022-09-28T21:36:01.891Z,84.90
2022-09-28T21:38:28.831Z,85.90
2022-09-28T21:40:56.842Z,86.20
2022-09-28T21:43:24.205Z,86.30
2022-09-28T21:45:52.079Z,86.20
2022-09-28T21:48:19.185Z,86.00
2022-09-28T21:51:02.888Z,84.90
2022-09-28T21:53:31.377Z,85.50
2022-09-28T21:55:58.612Z,85.50
2022-09-28T21:58:26.383Z,85.10
2022-09-28T22:00:58.223Z,85.20
2022-09-28T22:03:25.745Z,85.30
2022-09-28T22:05:52.492Z,84.80
2022-09-28T22:08:19.413Z,84.70
2022-09-28T22:10:46.245Z,84.90
2022-09-28T22:13:12.850Z,85.30
2022-09-28T22:15:39.490Z,84.40
2022-09-28T22:18:06.120Z,84.40
2022-09-28T22:20:32.723Z,84.60
2022-09-28T22:22:59.371Z,83.90
2022-09-28T22:25:25.997Z,83.70
2022-09-28T22:27:52.726Z,84.60
2022-09-28T22:30:19.343Z,84.60
2022-09-28T22:32:45.943Z,84.20
2022-09-28T22:35:12.562Z,83.40
2022-09-28T22:37:39.209Z,84.00
2022-09-28T22:40:06.229Z,84.20
2022-09-28T22:42:32.860Z,83.70
2022-09-28T22:44:59.465Z,83.80
2022-09-28T22:47:26.073Z,84.10
2022-09-28T22:49:52.717Z,83.60
2022-09-28T22:52:19.351Z,83.90
2022-09-28T22:54:46.141Z,84.50
2022-09-28T22:57:13.018Z,84.40
2022-09-28T22:59:39.629Z,84.10
2022-09-28T23:02:06.261Z,83.90
2022-09-28T23:04:33.050Z,84.70
2022-09-28T23:06:59.658Z,84.20
2022-09-28T23:09:26.325Z,83.60
2022-09-28T23:11:52.925Z,83.80
2022-09-28T23:14:19.547Z,84.00
2022-09-28T23:16:46.132Z,84.60
2022-09-28T23:19:12.743Z,84.90
2022-09-28T23:21:39.573Z,84.80
2022-09-28T23:24:06.207Z,85.10
2022-09-28T23:26:34.269Z,85.40
2022-09-28T23:29:00.923Z,85.20
2022-09-28T23:31:31.379Z,85.20
2022-09-28T23:34:01.911Z,86.00
2022-09-28T23:36:28.845Z,85.10
2022-09-28T23:38:55.472Z,85.30
2022-09-28T23:41:22.103Z,85.40
2022-09-28T23:43:48.753Z,85.40
2022-09-28T23:46:20.449Z,84.90
2022-09-28T23:48:48.179Z,84.50
2022-09-28T23:51:14.812Z,84.90
2022-09-28T23:53:41.441Z,85.00
2022-09-28T23:56:08.052Z,84.80
2022-09-28T23:58:34.656Z,85.30
